Time;durP1;ratioP1;P1;durP2;ratioP2;P2;SDS_P1;SDS_P2;PMS_P1;PMS_P2;Temp;Humidity;BMP_temperature;BMP_pressure;BME280_temperature;BME280_humidity;BME280_pressure;Samples;Min_cycle;Max_cycle;Signal;HPM_P1;HPM_P2
2022/12/03 00:02:00;;;;;;;3.00;1.90;;;;;;;;;;5063230;28;20048;-46
2022/12/03 00:04:26;;;;;;;2.85;2.40;;;;;;;;;;5057879;28;20381;-45
2022/12/03 00:06:52;;;;;;;2.90;1.98;;;;;;;;;;5063763;28;20147;-45
2022/12/03 00:09:19;;;;;;;2.92;2.47;;;;;;;;;;5066134;28;20717;-45
2022/12/03 00:11:45;;;;;;;2.83;1.95;;;;;;;;;;5064480;28;20044;-44
2022/12/03 00:14:11;;;;;;;2.83;2.10;;;;;;;;;;5075512;28;20081;-45
2022/12/03 00:16:37;;;;;;;2.72;2.20;;;;;;;;;;5072481;28;20025;-44
2022/12/03 00:19:03;;;;;;;4.40;2.20;;;;;;;;;;5078931;28;20455;-45
2022/12/03 00:21:29;;;;;;;3.80;2.33;;;;;;;;;;5069235;28;20124;-45
2022/12/03 00:23:55;;;;;;;3.40;2.13;;;;;;;;;;5071949;28;20470;-45
2022/12/03 00:26:20;;;;;;;3.40;2.50;;;;;;;;;;5060515;28;20028;-44
2022/12/03 00:28:47;;;;;;;3.42;2.20;;;;;;;;;;5062246;28;20033;-45
2022/12/03 00:31:13;;;;;;;3.08;2.03;;;;;;;;;;5061384;28;20060;-45
2022/12/03 00:33:39;;;;;;;3.55;2.33;;;;;;;;;;5066493;28;20079;-45
2022/12/03 00:36:05;;;;;;;4.68;2.30;;;;;;;;;;5065395;28;20086;-45
2022/12/03 00:38:31;;;;;;;2.95;2.22;;;;;;;;;;5067292;28;20033;-45
2022/12/03 00:40:57;;;;;;;2.70;2.03;;;;;;;;;;5062598;28;20420;-45
2022/12/03 00:43:23;;;;;;;3.20;2.22;;;;;;;;;;5066900;28;20056;-45
2022/12/03 00:45:49;;;;;;;3.15;2.45;;;;;;;;;;5064626;28;20027;-47
2022/12/03 00:48:15;;;;;;;3.50;2.38;;;;;;;;;;5067698;28;20025;-45
2022/12/03 00:50:41;;;;;;;3.38;1.77;;;;;;;;;;5065795;28;20060;-45
2022/12/03 00:53:07;;;;;;;2.83;1.88;;;;;;;;;;5079319;28;20047;-45
2022/12/03 00:55:33;;;;;;;3.05;2.03;;;;;;;;;;5083520;28;20020;-47
2022/12/03 00:57:59;;;;;;;3.50;1.88;;;;;;;;;;5082267;28;20050;-45
2022/12/03 01:00:25;;;;;;;2.67;1.83;;;;;;;;;;5082497;28;20039;-45
2022/12/03 01:02:51;;;;;;;3.75;2.28;;;;;;;;;;5086095;28;20381;-48
2022/12/03 01:05:18;;;;;;;2.92;2.22;;;;;;;;;;5087083;28;20024;-45
2022/12/03 01:07:44;;;;;;;3.08;2.42;;;;;;;;;;5086167;28;20032;-45
2022/12/03 01:10:10;;;;;;;3.20;2.20;;;;;;;;;;5082560;28;20073;-47
2022/12/03 01:12:36;;;;;;;2.92;2.63;;;;;;;;;;5084385;28;20024;-45
2022/12/03 01:15:02;;;;;;;3.30;2.25;;;;;;;;;;5085762;28;20008;-45
2022/12/03 01:17:28;;;;;;;3.70;2.13;;;;;;;;;;5086576;28;20093;-46
2022/12/03 01:19:54;;;;;;;4.85;2.78;;;;;;;;;;5084838;28;20118;-46
2022/12/03 01:22:20;;;;;;;3.42;2.00;;;;;;;;;;5084644;28;20110;-45
2022/12/03 01:24:46;;;;;;;3.10;2.33;;;;;;;;;;5088229;28;20517;-45
2022/12/03 01:27:12;;;;;;;2.83;2.33;;;;;;;;;;5090083;28;20036;-45
2022/12/03 01:29:38;;;;;;;2.50;1.90;;;;;;;;;;5089110;28;20024;-45
2022/12/03 01:32:18;;;;;;;2.55;2.08;;;;;;;;;;5083714;28;20028;-45
2022/12/03 01:34:44;;;;;;;2.50;1.90;;;;;;;;;;5089714;28;20027;-45
2022/12/03 01:37:10;;;;;;;4.10;2.35;;;;;;;;;;5090094;28;20107;-45
2022/12/03 01:39:36;;;;;;;2.22;1.85;;;;;;;;;;5091528;28;20150;-45
2022/12/03 01:42:02;;;;;;;3.33;2.20;;;;;;;;;;5089105;28;20076;-45
2022/12/03 01:44:30;;;;;;;3.08;2.30;;;;;;;;;;5093857;28;20025;-44
2022/12/03 01:46:56;;;;;;;3.00;1.95;;;;;;;;;;5090217;28;20031;-45
2022/12/03 01:49:30;;;;;;;2.78;2.30;;;;;;;;;;5092744;28;20145;-45
2022/12/03 01:51:57;;;;;;;2.80;2.33;;;;;;;;;;5092218;28;20127;-45
2022/12/03 01:54:30;;;;;;;2.28;1.70;;;;;;;;;;5094893;28;20455;-45
2022/12/03 01:56:56;;;;;;;3.03;2.15;;;;;;;;;;5090822;28;20409;-45
2022/12/03 01:59:27;;;;;;;2.80;1.88;;;;;;;;;;5097756;28;20122;-45
2022/12/03 02:01:53;;;;;;;2.60;2.10;;;;;;;;;;5077119;28;20427;-45
2022/12/03 02:04:20;;;;;;;3.22;2.38;;;;;;;;;;5076608;28;20017;-45
2022/12/03 02:06:46;;;;;;;2.90;2.00;;;;;;;;;;5081280;28;20469;-46
2022/12/03 02:09:13;;;;;;;3.45;2.28;;;;;;;;;;5082087;28;20035;-45
2022/12/03 02:11:44;;;;;;;3.90;2.65;;;;;;;;;;5096529;28;20734;-45
2022/12/03 02:14:11;;;;;;;3.15;2.30;;;;;;;;;;5091217;28;20344;-45
2022/12/03 02:16:38;;;;;;;3.28;2.42;;;;;;;;;;5091282;28;20089;-45
2022/12/03 02:19:08;;;;;;;4.22;2.45;;;;;;;;;;5092395;28;20035;-45
2022/12/03 02:21:43;;;;;;;2.28;2.08;;;;;;;;;;5090712;28;20154;-45
2022/12/03 02:24:15;;;;;;;3.33;2.45;;;;;;;;;;5092667;28;20216;-45
2022/12/03 02:26:41;;;;;;;3.28;2.53;;;;;;;;;;5091018;28;20134;-45
2022/12/03 02:29:07;;;;;;;2.63;2.20;;;;;;;;;;5085706;28;20103;-46
2022/12/03 02:31:33;;;;;;;2.70;2.17;;;;;;;;;;5077832;28;20497;-45
2022/12/03 02:33:59;;;;;;;2.75;1.85;;;;;;;;;;5090945;28;20036;-45
2022/12/03 02:36:25;;;;;;;2.92;2.00;;;;;;;;;;5076834;28;20595;-45
2022/12/03 02:38:51;;;;;;;3.40;2.15;;;;;;;;;;5074353;28;20025;-48
2022/12/03 02:44:13;;;;;;;2.83;2.03;;;;;;;;;;5022807;28;20034;-45
2022/12/03 02:46:39;;;;;;;3.10;2.13;;;;;;;;;;5097016;28;20028;-45
2022/12/03 02:49:05;;;;;;;3.47;2.17;;;;;;;;;;5100288;28;20093;-45
2022/12/03 02:51:32;;;;;;;2.55;2.17;;;;;;;;;;5091299;28;20028;-45
2022/12/03 02:53:59;;;;;;;2.25;2.00;;;;;;;;;;5105529;28;20028;-45
2022/12/03 02:56:26;;;;;;;2.63;1.50;;;;;;;;;;5094157;28;20032;-45
2022/12/03 02:58:54;;;;;;;3.05;2.30;;;;;;;;;;5082647;28;20013;-47
2022/12/03 03:01:20;;;;;;;2.00;1.70;;;;;;;;;;5080761;28;20036;-46
2022/12/03 03:03:46;;;;;;;3.72;1.88;;;;;;;;;;5078467;28;20031;-45
2022/12/03 03:06:14;;;;;;;3.03;2.33;;;;;;;;;;5081085;28;20028;-47
2022/12/03 03:08:41;;;;;;;2.33;1.88;;;;;;;;;;5086492;28;20028;-45
2022/12/03 03:11:07;;;;;;;2.58;2.10;;;;;;;;;;5077924;28;20036;-45
2022/12/03 03:13:34;;;;;;;2.38;2.08;;;;;;;;;;5082710;28;20583;-45
2022/12/03 03:16:01;;;;;;;1.85;1.42;;;;;;;;;;5085241;28;20015;-45
2022/12/03 03:18:27;;;;;;;2.15;1.80;;;;;;;;;;5089510;28;20035;-45
2022/12/03 03:20:53;;;;;;;2.13;1.67;;;;;;;;;;5082471;28;20032;-47
2022/12/03 03:23:21;;;;;;;3.25;2.15;;;;;;;;;;5082303;28;20484;-45
2022/12/03 03:25:49;;;;;;;2.40;1.95;;;;;;;;;;5086864;28;20024;-46
2022/12/03 03:28:15;;;;;;;3.17;2.25;;;;;;;;;;5081866;28;20027;-45
2022/12/03 03:30:42;;;;;;;2.25;2.03;;;;;;;;;;5080932;28;20030;-45
2022/12/03 03:33:08;;;;;;;2.45;1.90;;;;;;;;;;5102024;28;20031;-45
2022/12/03 03:35:35;;;;;;;2.08;1.60;;;;;;;;;;5097990;28;20035;-45
2022/12/03 03:38:01;;;;;;;2.78;2.15;;;;;;;;;;5093672;28;20027;-45
2022/12/03 03:40:27;;;;;;;3.00;2.13;;;;;;;;;;5092411;28;20086;-45
2022/12/03 03:42:54;;;;;;;2.58;1.92;;;;;;;;;;5097040;28;20020;-47
2022/12/03 03:45:20;;;;;;;2.28;1.98;;;;;;;;;;5083447;28;20449;-45
2022/12/03 03:47:46;;;;;;;1.90;1.60;;;;;;;;;;5080817;28;20361;-45
2022/12/03 03:50:13;;;;;;;3.28;2.20;;;;;;;;;;5080119;28;20095;-45
2022/12/03 03:52:39;;;;;;;2.28;2.05;;;;;;;;;;5074922;28;20052;-45
2022/12/03 03:55:06;;;;;;;3.15;2.40;;;;;;;;;;5085203;28;20035;-45
2022/12/03 03:57:32;;;;;;;3.22;2.33;;;;;;;;;;5083354;28;20020;-45
2022/12/03 03:59:58;;;;;;;2.67;1.85;;;;;;;;;;5084767;28;20085;-45
2022/12/03 04:02:25;;;;;;;4.15;1.95;;;;;;;;;;5081150;28;20056;-45
2022/12/03 04:04:52;;;;;;;2.28;1.65;;;;;;;;;;5086218;28;20031;-47
2022/12/03 04:07:18;;;;;;;2.85;2.22;;;;;;;;;;5084730;28;20028;-45
2022/12/03 04:09:44;;;;;;;2.25;1.80;;;;;;;;;;5085135;28;20103;-45
2022/12/03 04:14:57;;;;;;;2.53;2.08;;;;;;;;;;5086109;28;20059;-45
2022/12/03 04:17:23;;;;;;;2.78;2.28;;;;;;;;;;5083501;28;20431;-45
2022/12/03 04:19:49;;;;;;;2.55;2.25;;;;;;;;;;5084634;28;20050;-47
2022/12/03 04:30:29;;;;;;;2.15;1.73;;;;;;;;;;5100518;28;20112;-45
2022/12/03 04:35:42;;;;;;;2.47;1.92;;;;;;;;;;5105567;28;20028;-45
2022/12/03 04:38:11;;;;;;;2.80;2.28;;;;;;;;;;5105803;28;20749;-44
2022/12/03 04:43:22;;;;;;;2.42;1.88;;;;;;;;;;5089956;28;20028;-44
2022/12/03 04:45:48;;;;;;;3.03;1.83;;;;;;;;;;5095129;28;20020;-47
2022/12/03 04:48:14;;;;;;;3.05;2.22;;;;;;;;;;5092766;28;20440;-44
2022/12/03 04:50:40;;;;;;;2.83;2.10;;;;;;;;;;5092146;28;20088;-45
2022/12/03 04:53:06;;;;;;;2.47;2.13;;;;;;;;;;5097197;28;20048;-44
2022/12/03 04:55:33;;;;;;;2.95;2.42;;;;;;;;;;5093402;28;20032;-44
2022/12/03 04:57:58;;;;;;;3.58;2.63;;;;;;;;;;5092104;28;20028;-44
2022/12/03 05:00:25;;;;;;;2.72;2.20;;;;;;;;;;5092170;28;20081;-44
2022/12/03 05:02:51;;;;;;;2.92;2.20;;;;;;;;;;5088407;28;20024;-47
2022/12/03 05:05:17;;;;;;;3.80;2.35;;;;;;;;;;5083118;28;20043;-46
2022/12/03 05:07:43;;;;;;;3.05;1.98;;;;;;;;;;5083145;28;20028;-45
2022/12/03 05:10:09;;;;;;;2.53;2.20;;;;;;;;;;5077056;28;20035;-45
2022/12/03 05:12:35;;;;;;;3.17;2.28;;;;;;;;;;5099857;28;20050;-44
2022/12/03 05:15:01;;;;;;;2.20;2.00;;;;;;;;;;5092272;28;20468;-44
2022/12/03 05:17:27;;;;;;;3.47;2.20;;;;;;;;;;5100549;28;20024;-44
2022/12/03 05:22:38;;;;;;;2.85;2.30;;;;;;;;;;5084766;28;20027;-44
2022/12/03 05:25:04;;;;;;;2.25;1.90;;;;;;;;;;5091965;28;20024;-44
2022/12/03 05:27:30;;;;;;;2.65;1.92;;;;;;;;;;5081284;28;20515;-44
2022/12/03 05:29:56;;;;;;;3.38;2.80;;;;;;;;;;5080546;28;20038;-45
2022/12/03 05:32:22;;;;;;;2.72;2.40;;;;;;;;;;5080490;28;20044;-45
2022/12/03 05:34:48;;;;;;;3.05;1.92;;;;;;;;;;5077184;28;20035;-45
2022/12/03 05:37:14;;;;;;;2.80;2.20;;;;;;;;;;5085491;28;20445;-44
2022/12/03 05:39:40;;;;;;;3.05;2.38;;;;;;;;;;5079955;28;20051;-45
2022/12/03 05:44:51;;;;;;;3.42;2.03;;;;;;;;;;5090095;28;20031;-47
2022/12/03 05:47:17;;;;;;;2.75;2.22;;;;;;;;;;5091922;28;20028;-44
2022/12/03 05:49:42;;;;;;;3.47;2.90;;;;;;;;;;5092883;28;20111;-46
2022/12/03 05:52:08;;;;;;;3.00;2.28;;;;;;;;;;5093635;28;20023;-44
2022/12/03 05:54:35;;;;;;;3.00;2.00;;;;;;;;;;5093654;28;20052;-44
2022/12/03 05:57:00;;;;;;;3.75;2.60;;;;;;;;;;5090793;28;20039;-45
2022/12/03 05:59:26;;;;;;;4.03;2.58;;;;;;;;;;5090869;28;20032;-45
2022/12/03 06:01:52;;;;;;;3.00;2.28;;;;;;;;;;5089887;28;20162;-47
2022/12/03 06:04:18;;;;;;;3.25;2.15;;;;;;;;;;5103331;28;20023;-44
2022/12/03 06:06:44;;;;;;;2.55;2.13;;;;;;;;;;5102300;28;20206;-44
2022/12/03 06:09:35;;;;;;;3.95;3.13;;;;;;;;;;5093638;28;20016;-44
2022/12/03 06:12:26;;;;;;;3.15;2.47;;;;;;;;;;5077242;28;20115;-44
2022/12/03 06:15:17;;;;;;;3.80;2.50;;;;;;;;;;5081090;28;20759;-47
2022/12/03 06:18:08;;;;;;;2.50;1.80;;;;;;;;;;5079125;28;20032;-45
2022/12/03 06:20:59;;;;;;;3.00;2.17;;;;;;;;;;5081405;28;20032;-44
2022/12/03 06:23:25;;;;;;;2.50;2.00;;;;;;;;;;5080756;28;20115;-46
2022/12/03 06:25:51;;;;;;;3.85;2.65;;;;;;;;;;5080556;28;20177;-47
2022/12/03 06:28:17;;;;;;;2.72;2.15;;;;;;;;;;5067670;28;20021;-45
2022/12/03 06:30:43;;;;;;;2.78;2.35;;;;;;;;;;5076929;28;20043;-45
2022/12/03 06:33:09;;;;;;;3.13;2.55;;;;;;;;;;5075398;28;20098;-44
2022/12/03 06:35:35;;;;;;;2.45;2.25;;;;;;;;;;5092559;28;20474;-45
2022/12/03 06:38:01;;;;;;;2.92;2.22;;;;;;;;;;5091657;28;20023;-44
2022/12/03 06:40:27;;;;;;;2.95;2.55;;;;;;;;;;5085878;28;20068;-46
2022/12/03 06:42:53;;;;;;;3.47;2.13;;;;;;;;;;5083474;28;20024;-45
2022/12/03 06:45:19;;;;;;;4.05;2.42;;;;;;;;;;5084543;28;20024;-44
2022/12/03 06:47:45;;;;;;;3.13;2.28;;;;;;;;;;5082431;28;20477;-44
2022/12/03 06:50:12;;;;;;;3.50;2.47;;;;;;;;;;5082345;28;20103;-44
2022/12/03 06:52:38;;;;;;;3.17;2.20;;;;;;;;;;5080392;28;20035;-44
2022/12/03 06:55:04;;;;;;;3.15;2.35;;;;;;;;;;5079052;28;20048;-47
2022/12/03 06:57:30;;;;;;;3.10;2.33;;;;;;;;;;5078691;28;20394;-44
2022/12/03 06:59:56;;;;;;;3.63;2.38;;;;;;;;;;5081189;28;20024;-45
2022/12/03 07:02:22;;;;;;;3.75;2.58;;;;;;;;;;5082128;28;20020;-48
2022/12/03 07:04:52;;;;;;;2.65;2.03;;;;;;;;;;5065626;28;20531;-46
2022/12/03 07:07:18;;;;;;;3.03;2.35;;;;;;;;;;5079419;28;20404;-44
2022/12/03 07:09:44;;;;;;;3.38;2.47;;;;;;;;;;5078176;28;20024;-44
2022/12/03 07:12:10;;;;;;;3.05;2.42;;;;;;;;;;5097863;28;20279;-44
2022/12/03 07:14:36;;;;;;;3.20;2.20;;;;;;;;;;5091207;28;20028;-44
2022/12/03 07:17:02;;;;;;;2.63;2.30;;;;;;;;;;5083476;28;20123;-44
2022/12/03 07:19:28;;;;;;;3.28;2.50;;;;;;;;;;5095902;28;20038;-45
2022/12/03 07:21:54;;;;;;;3.15;2.47;;;;;;;;;;5091458;28;20032;-46
2022/12/03 07:24:20;;;;;;;3.40;2.60;;;;;;;;;;5100460;28;20051;-44
2022/12/03 07:26:46;;;;;;;3.92;2.55;;;;;;;;;;5089726;28;20024;-45
2022/12/03 07:29:12;;;;;;;4.07;2.72;;;;;;;;;;5095637;28;20024;-45
2022/12/03 07:31:38;;;;;;;5.25;2.72;;;;;;;;;;5095053;28;20032;-45
2022/12/03 07:34:04;;;;;;;4.43;2.63;;;;;;;;;;5093181;28;20484;-44
2022/12/03 07:36:30;;;;;;;11.15;3.88;;;;;;;;;;5088481;28;20068;-46
2022/12/03 07:38:56;;;;;;;6.25;3.30;;;;;;;;;;5097672;28;20058;-46
2022/12/03 07:41:22;;;;;;;6.13;4.03;;;;;;;;;;5095664;28;20370;-46
2022/12/03 07:43:48;;;;;;;6.38;3.70;;;;;;;;;;5093337;28;20048;-46
2022/12/03 07:46:14;;;;;;;5.30;3.28;;;;;;;;;;5089541;28;20031;-46
2022/12/03 07:48:40;;;;;;;4.45;3.03;;;;;;;;;;5085275;28;20076;-46
2022/12/03 07:51:06;;;;;;;6.82;3.45;;;;;;;;;;5086260;28;20055;-46
2022/12/03 07:53:32;;;;;;;3.90;2.88;;;;;;;;;;5086359;28;20052;-46
2022/12/03 07:55:58;;;;;;;5.70;2.92;;;;;;;;;;5095603;28;20026;-46
2022/12/03 07:58:24;;;;;;;4.40;3.45;;;;;;;;;;5096014;28;20385;-46
2022/12/03 08:00:50;;;;;;;5.50;2.85;;;;;;;;;;5074484;28;20032;-48
2022/12/03 08:03:16;;;;;;;4.22;3.38;;;;;;;;;;5093230;28;20065;-46
2022/12/03 08:05:42;;;;;;;4.65;2.75;;;;;;;;;;5091067;28;20032;-46
2022/12/03 08:08:08;;;;;;;3.83;2.83;;;;;;;;;;5093741;28;20035;-45
2022/12/03 08:10:33;;;;;;;4.88;3.08;;;;;;;;;;5091526;28;20350;-47
2022/12/03 08:13:00;;;;;;;4.72;2.58;;;;;;;;;;5090842;28;20035;-46
2022/12/03 08:15:27;;;;;;;5.20;2.70;;;;;;;;;;5090897;28;20036;-45
2022/12/03 08:17:55;;;;;;;3.95;3.03;;;;;;;;;;5092439;28;20031;-48
2022/12/03 08:20:22;;;;;;;7.55;2.88;;;;;;;;;;5092231;28;20028;-45
2022/12/03 08:22:50;;;;;;;8.90;3.15;;;;;;;;;;5091100;28;20457;-47
2022/12/03 08:25:19;;;;;;;5.38;3.17;;;;;;;;;;5082895;28;20031;-47
2022/12/03 08:27:45;;;;;;;4.75;2.85;;;;;;;;;;5082004;28;20567;-46
2022/12/03 08:30:12;;;;;;;4.03;2.72;;;;;;;;;;5081012;28;20055;-47
2022/12/03 08:32:38;;;;;;;4.00;3.28;;;;;;;;;;5081874;28;20493;-47
2022/12/03 08:35:10;;;;;;;5.32;2.80;;;;;;;;;;5081766;28;20496;-46
2022/12/03 08:37:36;;;;;;;;;;;;;;;;;;5067545;28;20431;-46
2022/12/03 08:40:02;;;;;;;5.30;3.70;;;;;;;;;;5078830;28;19916;-46
2022/12/03 08:42:43;;;;;;;5.43;3.00;;;;;;;;;;5080510;28;20054;-46
2022/12/03 08:45:25;;;;;;;3.75;2.65;;;;;;;;;;5083208;28;20460;-47
2022/12/03 08:47:51;;;;;;;3.78;2.95;;;;;;;;;;5082051;28;20416;-48
2022/12/03 08:50:28;;;;;;;4.85;2.75;;;;;;;;;;5083770;28;20115;-44
2022/12/03 08:52:56;;;;;;;4.03;3.10;;;;;;;;;;5077913;28;20541;-46
2022/12/03 08:55:42;;;;;;;4.68;2.40;;;;;;;;;;5082175;28;20032;-46
2022/12/03 08:58:27;;;;;;;5.72;3.03;;;;;;;;;;5064826;28;20040;-46
2022/12/03 09:00:56;;;;;;;4.38;2.80;;;;;;;;;;5080619;28;20058;-48
2022/12/03 09:03:23;;;;;;;5.35;2.40;;;;;;;;;;5093546;28;20393;-46
2022/12/03 09:05:49;;;;;;;5.28;2.92;;;;;;;;;;5094132;28;20028;-47
2022/12/03 09:08:15;;;;;;;5.28;3.15;;;;;;;;;;5091970;28;20051;-45
2022/12/03 09:10:41;;;;;;;6.00;2.90;;;;;;;;;;5095190;28;20033;-46
2022/12/03 09:13:07;;;;;;;5.28;3.00;;;;;;;;;;5075628;28;20106;-46
2022/12/03 09:15:33;;;;;;;5.00;2.85;;;;;;;;;;5095145;28;20021;-45
2022/12/03 09:17:59;;;;;;;4.20;2.78;;;;;;;;;;5089972;28;20024;-45
2022/12/03 09:20:25;;;;;;;4.65;3.38;;;;;;;;;;5093895;28;20054;-45
2022/12/03 09:22:51;;;;;;;4.57;3.10;;;;;;;;;;5092035;28;20035;-47
2022/12/03 09:25:17;;;;;;;7.10;3.40;;;;;;;;;;5097360;28;20024;-45
2022/12/03 09:27:43;;;;;;;4.18;3.08;;;;;;;;;;5091336;28;20031;-45
2022/12/03 09:30:09;;;;;;;5.15;3.10;;;;;;;;;;5093117;28;20132;-45
2022/12/03 09:32:35;;;;;;;7.15;3.45;;;;;;;;;;5091981;28;20496;-45
2022/12/03 09:35:01;;;;;;;5.35;3.33;;;;;;;;;;5082345;28;20060;-46
2022/12/03 09:37:27;;;;;;;5.35;3.50;;;;;;;;;;5093237;28;20484;-46
2022/12/03 09:39:53;;;;;;;6.85;3.72;;;;;;;;;;5093889;28;20020;-48
2022/12/03 09:42:18;;;;;;;7.50;3.42;;;;;;;;;;5100233;28;20024;-46
2022/12/03 09:44:45;;;;;;;8.38;3.60;;;;;;;;;;5093375;28;20024;-45
2022/12/03 09:47:11;;;;;;;6.25;3.88;;;;;;;;;;5090849;28;20012;-46
2022/12/03 09:49:38;;;;;;;12.18;3.78;;;;;;;;;;5090678;28;20024;-45
2022/12/03 09:52:05;;;;;;;10.75;4.53;;;;;;;;;;5090296;28;20354;-45
2022/12/03 09:54:31;;;;;;;9.18;3.15;;;;;;;;;;5095792;28;20397;-46
2022/12/03 09:57:01;;;;;;;10.27;3.25;;;;;;;;;;5091009;28;20369;-46
2022/12/03 09:59:30;;;;;;;7.05;3.45;;;;;;;;;;5094582;28;20035;-46
2022/12/03 10:01:57;;;;;;;9.07;4.05;;;;;;;;;;5108053;28;20081;-46
2022/12/03 10:04:23;;;;;;;8.07;4.38;;;;;;;;;;5104372;28;20476;-45
2022/12/03 10:06:50;;;;;;;8.70;3.60;;;;;;;;;;5095878;28;20473;-48
2022/12/03 10:09:19;;;;;;;6.63;4.10;;;;;;;;;;5090766;28;20089;-46
2022/12/03 10:11:45;;;;;;;7.18;3.90;;;;;;;;;;5090776;28;20043;-46
2022/12/03 10:14:12;;;;;;;7.53;3.70;;;;;;;;;;5091006;28;20617;-45
2022/12/03 10:16:39;;;;;;;8.40;3.63;;;;;;;;;;5091579;28;20373;-46
2022/12/03 10:19:05;;;;;;;7.32;3.10;;;;;;;;;;5090461;28;20035;-46
2022/12/03 10:21:36;;;;;;;5.72;3.63;;;;;;;;;;5078628;28;20035;-46
2022/12/03 10:24:20;;;;;;;5.43;3.70;;;;;;;;;;5078007;28;20052;-46
2022/12/03 10:26:48;;;;;;;6.38;3.08;;;;;;;;;;5082888;28;20687;-46
2022/12/03 10:29:16;;;;;;;6.32;3.08;;;;;;;;;;5074414;28;20024;-46
2022/12/03 10:31:42;;;;;;;5.10;3.17;;;;;;;;;;5076653;28;20035;-46
2022/12/03 10:34:09;;;;;;;7.40;3.63;;;;;;;;;;5077049;28;20025;-46
2022/12/03 10:36:35;;;;;;;7.68;3.63;;;;;;;;;;5084123;28;20057;-46
2022/12/03 10:39:08;;;;;;;8.50;3.90;;;;;;;;;;5076183;28;20100;-45
2022/12/03 10:41:36;;;;;;;6.03;3.58;;;;;;;;;;5080867;28;20036;-46
2022/12/03 10:44:14;;;;;;;4.25;2.88;;;;;;;;;;5076855;28;20111;-47
2022/12/03 10:46:40;;;;;;;5.78;3.15;;;;;;;;;;5076908;28;20033;-47
2022/12/03 10:49:10;;;;;;;13.48;5.07;;;;;;;;;;5078131;28;20150;-47
2022/12/03 10:51:37;;;;;;;6.65;3.88;;;;;;;;;;5079685;28;20032;-46
2022/12/03 10:54:05;;;;;;;7.13;3.60;;;;;;;;;;5077469;28;20401;-47
2022/12/03 10:56:31;;;;;;;5.80;3.65;;;;;;;;;;5076886;28;20025;-46
2022/12/03 10:58:57;;;;;;;8.20;3.45;;;;;;;;;;5076941;28;20031;-46
2022/12/03 11:01:24;;;;;;;8.90;3.22;;;;;;;;;;5074408;28;20032;-46
2022/12/03 11:03:50;;;;;;;5.32;3.45;;;;;;;;;;5080970;28;20027;-48
2022/12/03 11:06:21;;;;;;;4.45;2.85;;;;;;;;;;5080713;28;20035;-45
2022/12/03 11:08:49;;;;;;;6.80;3.80;;;;;;;;;;5083260;28;20031;-47
2022/12/03 11:11:28;;;;;;;5.95;3.47;;;;;;;;;;5082573;28;20040;-45
2022/12/03 11:13:55;;;;;;;5.20;3.60;;;;;;;;;;5093497;28;20070;-46
2022/12/03 11:16:50;;;;;;;6.57;3.70;;;;;;;;;;5093677;28;20410;-46
2022/12/03 11:19:39;;;;;;;5.50;3.22;;;;;;;;;;5039852;28;20038;-46
2022/12/03 11:22:05;;;;;;;4.40;3.28;;;;;;;;;;5091664;28;20032;-45
2022/12/03 11:24:32;;;;;;;5.63;3.50;;;;;;;;;;5095448;28;20024;-46
2022/12/03 11:26:59;;;;;;;6.05;3.28;;;;;;;;;;5088505;28;20020;-46
2022/12/03 11:29:43;;;;;;;5.35;3.42;;;;;;;;;;5077215;28;20111;-46
2022/12/03 11:32:09;;;;;;;6.13;3.85;;;;;;;;;;5080851;28;20678;-45
2022/12/03 11:34:35;;;;;;;5.40;3.20;;;;;;;;;;5094987;28;20028;-46
2022/12/03 11:37:10;;;;;;;5.32;4.13;;;;;;;;;;5086548;28;20029;-46
2022/12/03 11:39:53;;;;;;;5.88;3.35;;;;;;;;;;5079893;28;20376;-46
2022/12/03 11:42:25;;;;;;;5.60;3.88;;;;;;;;;;5078768;28;20103;-46
2022/12/03 11:45:07;;;;;;;6.50;3.90;;;;;;;;;;5083949;28;20028;-48
2022/12/03 11:47:40;;;;;;;4.65;3.13;;;;;;;;;;5093330;28;20039;-46
2022/12/03 11:50:20;;;;;;;4.68;3.13;;;;;;;;;;5094061;28;20024;-46
2022/12/03 11:52:49;;;;;;;5.35;3.40;;;;;;;;;;5093904;28;20028;-46
2022/12/03 11:55:30;;;;;;;6.03;3.92;;;;;;;;;;5094267;28;20121;-45
2022/12/03 11:57:57;;;;;;;4.22;3.10;;;;;;;;;;5081861;28;20025;-46
2022/12/03 12:00:24;;;;;;;5.18;3.45;;;;;;;;;;5079750;28;20028;-45
2022/12/03 12:02:51;;;;;;;6.00;3.53;;;;;;;;;;5096039;28;20031;-48
2022/12/03 12:05:18;;;;;;;7.68;3.97;;;;;;;;;;5094150;28;20043;-47
2022/12/03 12:07:46;;;;;;;4.10;3.20;;;;;;;;;;5092885;28;20165;-45
2022/12/03 12:10:13;;;;;;;5.05;3.58;;;;;;;;;;5093690;28;20465;-46
2022/12/03 12:12:45;;;;;;;4.47;3.20;;;;;;;;;;5093267;28;20178;-45
2022/12/03 12:15:30;;;;;;;5.75;3.17;;;;;;;;;;5092446;28;20046;-46
2022/12/03 12:17:55;;;;;;;4.75;3.42;;;;;;;;;;5087593;28;20031;-45
2022/12/03 12:20:23;;;;;;;5.32;3.00;;;;;;;;;;5092805;28;20035;-45
2022/12/03 12:22:50;;;;;;;4.72;3.60;;;;;;;;;;5093332;28;20035;-48
2022/12/03 12:25:34;;;;;;;5.03;3.10;;;;;;;;;;5093513;28;20020;-46
2022/12/03 12:28:00;;;;;;;6.93;2.95;;;;;;;;;;5086469;28;20121;-45
2022/12/03 12:30:26;;;;;;;4.10;2.95;;;;;;;;;;5094159;28;20048;-47
2022/12/03 12:33:00;;;;;;;4.70;3.65;;;;;;;;;;5092733;28;20485;-48
2022/12/03 12:35:31;;;;;;;4.50;3.15;;;;;;;;;;5092106;28;20025;-45
2022/12/03 12:38:11;;;;;;;5.55;3.10;;;;;;;;;;5079247;28;20028;-46
2022/12/03 12:40:38;;;;;;;4.38;3.13;;;;;;;;;;5098829;28;20020;-45
2022/12/03 12:43:04;;;;;;;5.18;3.10;;;;;;;;;;5092915;28;20026;-45
2022/12/03 12:45:33;;;;;;;5.18;3.20;;;;;;;;;;5093956;28;20019;-46
2022/12/03 12:48:10;;;;;;;5.32;3.72;;;;;;;;;;5092189;28;20059;-45
2022/12/03 12:50:37;;;;;;;4.45;2.80;;;;;;;;;;5093666;28;20069;-45
2022/12/03 12:53:11;;;;;;;4.18;2.75;;;;;;;;;;5086451;28;20056;-45
2022/12/03 12:55:40;;;;;;;5.47;3.08;;;;;;;;;;5095955;28;20028;-46
2022/12/03 12:58:17;;;;;;;4.53;3.30;;;;;;;;;;5078983;28;20500;-45
2022/12/03 13:00:46;;;;;;;4.55;2.88;;;;;;;;;;5093112;28;20032;-45
2022/12/03 13:03:12;;;;;;;4.57;2.80;;;;;;;;;;5092251;28;20016;-46
2022/12/03 13:05:39;;;;;;;4.45;2.97;;;;;;;;;;5092580;28;20090;-46
2022/12/03 13:08:18;;;;;;;4.78;3.40;;;;;;;;;;5073698;28;20100;-45
2022/12/03 13:10:44;;;;;;;5.10;3.38;;;;;;;;;;5080726;28;20102;-45
2022/12/03 13:13:22;;;;;;;4.03;3.42;;;;;;;;;;5077585;28;20028;-45
2022/12/03 13:15:49;;;;;;;4.70;3.28;;;;;;;;;;5075372;28;20024;-45
2022/12/03 13:18:26;;;;;;;4.40;2.75;;;;;;;;;;5080172;28;20032;-45
2022/12/03 13:20:53;;;;;;;5.88;2.95;;;;;;;;;;5080258;28;20060;-48
2022/12/03 13:23:27;;;;;;;4.47;2.90;;;;;;;;;;5092119;28;20032;-45
2022/12/03 13:25:53;;;;;;;4.45;3.17;;;;;;;;;;5091249;28;20090;-48
2022/12/03 13:28:19;;;;;;;5.60;3.50;;;;;;;;;;5092401;28;20024;-46
2022/12/03 13:30:45;;;;;;;4.90;3.42;;;;;;;;;;5092994;28;20063;-45
2022/12/03 13:33:22;;;;;;;5.60;3.65;;;;;;;;;;5089794;28;20019;-46
2022/12/03 13:35:51;;;;;;;5.35;3.40;;;;;;;;;;5091509;28;20020;-46
2022/12/03 13:38:18;;;;;;;4.90;3.25;;;;;;;;;;5092321;28;20020;-45
2022/12/03 13:40:44;;;;;;;5.20;3.17;;;;;;;;;;5092918;28;20019;-45
2022/12/03 13:43:15;;;;;;;4.40;3.08;;;;;;;;;;5077871;28;20025;-46
2022/12/03 13:45:43;;;;;;;4.55;3.35;;;;;;;;;;5077617;28;20020;-47
2022/12/03 13:48:22;;;;;;;6.13;3.55;;;;;;;;;;5082791;28;20025;-46
2022/12/03 13:50:48;;;;;;;3.67;2.88;;;;;;;;;;5077023;28;20029;-46
2022/12/03 13:53:27;;;;;;;4.78;3.63;;;;;;;;;;5072288;28;20444;-46
2022/12/03 13:55:59;;;;;;;3.53;2.53;;;;;;;;;;5077076;28;20024;-48
2022/12/03 13:58:25;;;;;;;;;;;;;;;;;;5080051;28;20028;-46
2022/12/03 14:00:51;;;;;;;4.93;3.20;;;;;;;;;;5075551;28;21184;-48
2022/12/03 14:03:17;;;;;;;4.25;3.22;;;;;;;;;;5095894;28;20032;-45
2022/12/03 14:05:43;;;;;;;4.72;3.20;;;;;;;;;;5090997;28;20075;-45
2022/12/03 14:08:09;;;;;;;3.78;2.83;;;;;;;;;;5072897;28;20062;-45
2022/12/03 14:10:35;;;;;;;6.75;3.75;;;;;;;;;;5092556;28;20039;-46
2022/12/03 14:13:01;;;;;;;5.25;3.53;;;;;;;;;;5084056;28;20418;-46
2022/12/03 14:15:27;;;;;;;5.38;3.25;;;;;;;;;;5077236;28;20024;-46
2022/12/03 14:17:53;;;;;;;6.40;3.70;;;;;;;;;;5076159;28;20050;-47
2022/12/03 14:20:19;;;;;;;5.45;3.20;;;;;;;;;;5076461;28;20388;-46
2022/12/03 14:22:45;;;;;;;4.72;3.40;;;;;;;;;;5076453;28;20442;-45
2022/12/03 14:25:11;;;;;;;4.82;3.50;;;;;;;;;;5080222;28;20044;-46
2022/12/03 14:27:37;;;;;;;5.32;4.05;;;;;;;;;;5078709;28;20017;-46
2022/12/03 14:30:03;;;;;;;4.28;3.15;;;;;;;;;;5080937;28;20069;-45
2022/12/03 14:32:29;;;;;;;4.40;3.28;;;;;;;;;;5077539;28;20032;-46
2022/12/03 14:34:55;;;;;;;5.00;3.28;;;;;;;;;;5080019;28;20032;-46
2022/12/03 14:37:21;;;;;;;5.93;3.38;;;;;;;;;;5080226;28;20112;-46
2022/12/03 14:39:47;;;;;;;5.70;3.00;;;;;;;;;;5067300;28;20451;-48
2022/12/03 14:42:13;;;;;;;4.93;3.50;;;;;;;;;;5079486;28;20427;-46
2022/12/03 14:44:40;;;;;;;7.03;3.53;;;;;;;;;;5078184;28;20024;-45
2022/12/03 14:47:06;;;;;;;4.95;3.33;;;;;;;;;;5076563;28;20012;-46
2022/12/03 14:49:32;;;;;;;4.18;3.03;;;;;;;;;;5080645;28;20431;-46
2022/12/03 14:51:58;;;;;;;4.90;3.22;;;;;;;;;;5077354;28;20071;-46
2022/12/03 14:54:24;;;;;;;5.82;3.88;;;;;;;;;;5078842;28;20068;-47
2022/12/03 14:56:50;;;;;;;5.20;3.63;;;;;;;;;;5091524;28;20076;-48
2022/12/03 14:59:16;;;;;;;8.38;3.90;;;;;;;;;;5095130;28;20051;-45
2022/12/03 15:01:42;;;;;;;5.53;3.17;;;;;;;;;;5091101;28;20447;-46
2022/12/03 15:04:08;;;;;;;4.68;3.15;;;;;;;;;;5090758;28;20017;-45
2022/12/03 15:06:34;;;;;;;5.30;3.33;;;;;;;;;;5083525;28;20354;-45
2022/12/03 15:09:00;;;;;;;4.88;3.38;;;;;;;;;;5090799;28;20027;-45
2022/12/03 15:11:26;;;;;;;5.63;3.88;;;;;;;;;;5091047;28;20040;-46
2022/12/03 15:13:52;;;;;;;5.20;3.28;;;;;;;;;;5089809;28;20032;-48